Time;durP1;ratioP1;P1;durP2;ratioP2;P2;SDS_P1;SDS_P2;PMS_P1;PMS_P2;Temp;Humidity;BMP_temperature;BMP_pressure;BME280_temperature;BME280_humidity;BME280_pressure;Samples;Min_cycle;Max_cycle;Signal;HPM_P1;HPM_P2
2022/01/13 00:02:14;;;;;;;;;;;4.30;1.00;;;;;;5022509;28;20055;-79
2022/01/13 00:04:39;;;;;;;;;;;4.20;1.00;;;;;;5016272;28;20444;-80
2022/01/13 00:07:05;;;;;;;;;;;4.20;1.00;;;;;;5015702;28;19969;-79
2022/01/13 00:09:30;;;;;;;;;;;4.10;99.90;;;;;;5031466;28;19909;-78
2022/01/13 00:11:57;;;;;;;;;;;4.10;99.90;;;;;;5031815;28;20317;-80
2022/01/13 00:19:55;;;;;;;;;;;4.00;1.00;;;;;;5020974;28;19909;-79
2022/01/13 00:24:53;;;;;;;;;;;4.00;1.00;;;;;;5015384;28;20290;-80
2022/01/13 00:27:22;;;;;;;;;;;3.90;1.00;;;;;;5013683;28;20378;-79
2022/01/13 00:29:47;;;;;;;;;;;3.90;1.00;;;;;;5028039;28;20285;-79
2022/01/13 00:32:14;;;;;;;;;;;3.80;1.00;;;;;;5035627;28;20019;-79
2022/01/13 00:34:40;;;;;;;;;;;3.80;1.00;;;;;;5030922;28;19977;-79
2022/01/13 00:37:06;;;;;;;;;;;3.80;22.60;;;;;;5017188;28;19913;-79
2022/01/13 00:39:31;;;;;;;;;;;3.70;41.50;;;;;;5020956;28;19949;-80
2022/01/13 00:41:57;;;;;;;;;;;3.70;41.00;;;;;;5006030;28;19917;-79
2022/01/13 00:44:22;;;;;;;;;;;3.70;45.40;;;;;;5015076;28;19967;-79
2022/01/13 00:46:55;;;;;;;;;;;3.70;78.50;;;;;;5015273;28;19914;-79
2022/01/13 00:49:20;;;;;;;;;;;3.70;99.90;;;;;;5013577;28;20330;-79
2022/01/13 00:51:45;;;;;;;;;;;3.60;99.90;;;;;;5031684;28;19967;-79
2022/01/13 00:54:11;;;;;;;;;;;3.60;99.90;;;;;;5047048;28;20285;-80
2022/01/13 00:56:37;;;;;;;;;;;3.60;99.90;;;;;;5021598;28;19913;-79
2022/01/13 00:59:07;;;;;;;;;;;3.60;99.90;;;;;;5019258;28;20333;-80
2022/01/13 01:01:33;;;;;;;;;;;3.60;99.90;;;;;;5029494;28;19989;-79
2022/01/13 01:03:58;;;;;;;;;;;3.60;99.90;;;;;;5029647;28;20040;-79
2022/01/13 01:06:24;;;;;;;;;;;3.60;99.90;;;;;;5045942;28;19914;-80
2022/01/13 01:08:49;;;;;;;;;;;3.60;99.90;;;;;;5014554;28;20354;-78
2022/01/13 01:11:15;;;;;;;;;;;3.60;99.90;;;;;;5014613;28;19928;-78
2022/01/13 01:13:40;;;;;;;;;;;3.70;99.90;;;;;;5027884;28;19909;-79
2022/01/13 01:16:08;;;;;;;;;;;3.70;99.90;;;;;;5020397;28;20298;-79
2022/01/13 01:18:48;;;;;;;;;;;3.70;99.90;;;;;;5015773;28;20024;-79
2022/01/13 01:28:51;;;;;;;;;;;3.60;85.30;;;;;;5014617;28;19910;-78
2022/01/13 01:31:23;;;;;;;;;;;3.60;99.90;;;;;;5015826;28;19913;-79
2022/01/13 01:34:00;;;;;;;;;;;3.70;99.90;;;;;;5014554;28;19969;-79
2022/01/13 01:36:26;;;;;;;;;;;3.70;99.90;;;;;;5012079;28;19914;-79
2022/01/13 01:38:53;;;;;;;;;;;3.60;99.90;;;;;;5014399;28;19920;-78
2022/01/13 01:41:19;;;;;;;;;;;3.60;99.90;;;;;;5029594;28;19913;-79
2022/01/13 01:43:45;;;;;;;;;;;3.60;99.90;;;;;;5019325;28;19988;-79
2022/01/13 01:46:10;;;;;;;;;;;3.60;99.90;;;;;;5054275;28;19921;-78
2022/01/13 01:48:36;;;;;;;;;;;3.60;99.90;;;;;;5038929;28;20290;-79
2022/01/13 01:51:04;;;;;;;;;;;3.60;99.90;;;;;;5038792;28;19924;-79
2022/01/13 01:53:30;;;;;;;;;;;3.60;99.90;;;;;;5030492;28;20400;-79
2022/01/13 01:55:56;;;;;;;;;;;3.60;99.90;;;;;;5032332;28;19913;-79
2022/01/13 01:58:21;;;;;;;;;;;3.60;99.90;;;;;;5030483;28;19913;-79
2022/01/13 02:00:47;;;;;;;;;;;3.60;99.90;;;;;;5014737;28;19913;-79
2022/01/13 02:03:14;;;;;;;;;;;3.60;99.90;;;;;;5013743;28;19979;-79
2022/01/13 02:05:40;;;;;;;;;;;3.60;99.90;;;;;;5038003;28;19914;-79
2022/01/13 02:08:05;;;;;;;;;;;3.50;99.90;;;;;;5030163;28;19916;-80
2022/01/13 02:10:31;;;;;;;;;;;3.50;99.90;;;;;;5014652;28;19937;-79
2022/01/13 02:13:03;;;;;;;;;;;3.50;99.90;;;;;;5029799;28;20330;-79
2022/01/13 02:15:32;;;;;;;;;;;3.50;99.90;;;;;;5012551;28;19988;-78
2022/01/13 02:17:59;;;;;;;;;;;3.60;99.90;;;;;;5013395;28;19913;-79
2022/01/13 02:20:39;;;;;;;;;;;3.60;99.90;;;;;;5014547;28;20281;-79
2022/01/13 02:23:04;;;;;;;;;;;3.60;99.90;;;;;;5014975;28;19936;-79
2022/01/13 02:25:30;;;;;;;;;;;3.60;99.90;;;;;;5014378;28;19917;-79
2022/01/13 02:27:55;;;;;;;;;;;3.70;99.90;;;;;;5014985;28;19945;-79
2022/01/13 02:30:21;;;;;;;;;;;3.70;99.90;;;;;;5014219;28;19918;-79
2022/01/13 02:32:46;;;;;;;;;;;3.70;97.20;;;;;;5014024;28;19913;-79
2022/01/13 02:35:12;;;;;;;;;;;3.70;25.00;;;;;;5012849;28;19925;-80
2022/01/13 02:37:37;;;;;;;;;;;3.70;1.00;;;;;;5014563;28;19939;-80
2022/01/13 02:40:03;;;;;;;;;;;3.60;1.00;;;;;;5015000;28;19913;-79
2022/01/13 02:42:29;;;;;;;;;;;3.60;1.00;;;;;;5028167;28;19913;-79
2022/01/13 02:45:06;;;;;;;;;;;3.60;50.60;;;;;;5013801;28;19917;-79
2022/01/13 02:47:37;;;;;;;;;;;3.50;99.90;;;;;;5030085;28;19924;-79
2022/01/13 02:50:03;;;;;;;;;;;3.50;99.90;;;;;;5014585;28;19960;-79
2022/01/13 02:52:29;;;;;;;;;;;3.50;99.90;;;;;;5011602;28;19921;-79
2022/01/13 02:54:54;;;;;;;;;;;3.60;99.90;;;;;;5033022;28;19917;-79
2022/01/13 02:57:20;;;;;;;;;;;3.60;99.90;;;;;;5014569;28;20381;-79
2022/01/13 02:59:45;;;;;;;;;;;3.60;99.90;;;;;;5017101;28;19920;-80
2022/01/13 03:02:11;;;;;;;;;;;3.60;99.90;;;;;;5032814;28;20360;-79
2022/01/13 03:04:36;;;;;;;;;;;3.60;56.40;;;;;;5049366;28;19920;-80
2022/01/13 03:07:03;;;;;;;;;;;3.60;47.30;;;;;;5018122;28;19909;-79
2022/01/13 03:09:29;;;;;;;;;;;3.60;57.50;;;;;;5017442;28;19967;-80
2022/01/13 03:11:54;;;;;;;;;;;3.60;94.60;;;;;;5018544;28;19913;-80
2022/01/13 03:14:20;;;;;;;;;;;3.60;58.30;;;;;;5022056;28;19914;-80
2022/01/13 03:16:45;;;;;;;;;;;3.70;20.10;;;;;;5021260;28;20285;-80
2022/01/13 03:19:11;;;;;;;;;;;3.60;2.10;;;;;;5032094;28;20409;-79
2022/01/13 03:21:37;;;;;;;;;;;3.60;1.00;;;;;;5044604;28;19966;-79
2022/01/13 03:24:06;;;;;;;;;;;3.60;1.00;;;;;;5023156;28;20270;-80
2022/01/13 03:26:32;;;;;;;;;;;3.50;1.00;;;;;;5013912;28;19926;-79
2022/01/13 03:29:30;;;;;;;;;;;3.50;52.70;;;;;;5016431;28;19913;-79
2022/01/13 03:31:49;;;;;;;;;;;3.50;86.70;;;;;;5016709;28;20302;-79
2022/01/13 03:34:16;;;;;;;;;;;3.50;99.90;;;;;;5016790;28;19910;-79
2022/01/13 03:36:42;;;;;;;;;;;3.60;99.90;;;;;;5016567;28;19926;-80
2022/01/13 03:39:08;;;;;;;;;;;3.50;91.70;;;;;;5016105;28;20363;-79
2022/01/13 03:41:34;;;;;;;;;;;3.50;37.70;;;;;;5021663;28;19925;-79
2022/01/13 03:44:05;;;;;;;;;;;3.50;97.90;;;;;;5047365;28;19968;-79
2022/01/13 03:46:32;;;;;;;;;;;3.50;65.00;;;;;;5023344;28;19939;-79
2022/01/13 03:48:57;;;;;;;;;;;3.40;42.10;;;;;;5031572;28;19989;-79
2022/01/13 03:51:23;;;;;;;;;;;3.40;99.90;;;;;;5047952;28;19948;-80
2022/01/13 03:53:51;;;;;;;;;;;3.40;99.90;;;;;;5016365;28;20282;-79
2022/01/13 03:56:34;;;;;;;;;;;3.30;99.90;;;;;;5016912;28;19917;-80
2022/01/13 03:59:19;;;;;;;;;;;3.30;99.90;;;;;;5017587;28;19913;-80
2022/01/13 04:01:57;;;;;;;;;;;3.30;99.90;;;;;;5019778;28;20297;-79
2022/01/13 04:04:22;;;;;;;;;;;3.20;99.90;;;;;;5019926;28;19913;-79
2022/01/13 04:06:48;;;;;;;;;;;3.30;99.90;;;;;;5020890;28;19988;-79
2022/01/13 04:09:22;;;;;;;;;;;3.30;99.90;;;;;;5022118;28;19913;-79
2022/01/13 04:11:47;;;;;;;;;;;3.30;99.90;;;;;;5020731;28;19909;-79
2022/01/13 04:14:13;;;;;;;;;;;3.30;99.90;;;;;;5016273;28;19913;-80
2022/01/13 04:16:38;;;;;;;;;;;3.30;99.90;;;;;;5016246;28;20293;-79
2022/01/13 04:19:05;;;;;;;;;;;3.30;99.90;;;;;;5023966;28;19913;-79
2022/01/13 04:21:35;;;;;;;;;;;3.30;99.90;;;;;;5015667;28;20389;-79
2022/01/13 04:24:02;;;;;;;;;;;3.30;99.90;;;;;;5014894;28;19914;-79
2022/01/13 04:26:30;;;;;;;;;;;3.30;99.90;;;;;;5030812;28;20397;-79
2022/01/13 04:29:05;;;;;;;;;;;3.30;99.90;;;;;;5022064;28;20007;-80
2022/01/13 04:31:30;;;;;;;;;;;3.30;99.90;;;;;;5015945;28;19913;-80
2022/01/13 04:33:56;;;;;;;;;;;3.30;99.90;;;;;;5030714;28;19940;-79
2022/01/13 04:36:21;;;;;;;;;;;3.30;99.90;;;;;;5030514;28;19913;-79
2022/01/13 04:38:47;;;;;;;;;;;3.30;99.90;;;;;;5016884;28;19913;-80
2022/01/13 04:41:15;;;;;;;;;;;3.20;99.90;;;;;;5031460;28;19921;-79
2022/01/13 04:43:42;;;;;;;;;;;3.20;99.90;;;;;;5027725;28;20325;-79
2022/01/13 04:46:07;;;;;;;;;;;3.10;99.90;;;;;;5017498;28;19914;-80
2022/01/13 04:48:33;;;;;;;;;;;3.00;99.90;;;;;;5015703;28;19917;-80
2022/01/13 04:50:58;;;;;;;;;;;3.00;99.90;;;;;;5015359;28;20298;-79
2022/01/13 04:53:23;;;;;;;;;;;3.00;99.90;;;;;;5016248;28;19913;-80
2022/01/13 04:55:57;;;;;;;;;;;3.00;99.90;;;;;;5021155;28;19914;-79
2022/01/13 04:58:24;;;;;;;;;;;3.00;99.90;;;;;;5040220;28;19919;-80
2022/01/13 05:00:50;;;;;;;;;;;3.00;99.90;;;;;;5015999;28;20297;-79
2022/01/13 05:03:16;;;;;;;;;;;3.00;99.90;;;;;;5016877;28;19924;-79
2022/01/13 05:05:41;;;;;;;;;;;3.00;99.90;;;;;;5023665;28;19917;-79
2022/01/13 05:08:07;;;;;;;;;;;2.90;99.90;;;;;;5030174;28;19960;-79
2022/01/13 05:10:32;;;;;;;;;;;2.90;99.90;;;;;;5015840;28;19914;-79
2022/01/13 05:12:58;;;;;;;;;;;2.90;99.90;;;;;;5014860;28;19949;-79
2022/01/13 05:15:26;;;;;;;;;;;2.90;99.90;;;;;;5020257;28;19914;-79
2022/01/13 05:20:21;;;;;;;;;;;3.00;99.90;;;;;;5014435;28;19920;-79
2022/01/13 05:22:48;;;;;;;;;;;3.00;99.90;;;;;;5030282;28;19917;-79
2022/01/13 05:25:14;;;;;;;;;;;3.00;99.90;;;;;;5029434;28;19924;-79
2022/01/13 05:27:39;;;;;;;;;;;3.00;99.90;;;;;;5029896;28;20080;-79
2022/01/13 05:30:05;;;;;;;;;;;3.00;99.90;;;;;;5014360;28;19914;-79
2022/01/13 05:32:31;;;;;;;;;;;3.00;99.90;;;;;;5014801;28;19917;-79
2022/01/13 05:34:57;;;;;;;;;;;3.00;99.90;;;;;;5035216;28;19913;-79
2022/01/13 05:37:22;;;;;;;;;;;2.90;99.90;;;;;;5015064;28;19909;-79
2022/01/13 05:39:48;;;;;;;;;;;2.90;99.90;;;;;;5014137;28;20341;-79
2022/01/13 05:42:13;;;;;;;;;;;2.90;99.90;;;;;;5029616;28;19960;-79
2022/01/13 05:44:39;;;;;;;;;;;2.80;99.90;;;;;;5014485;28;19913;-79
2022/01/13 05:47:05;;;;;;;;;;;2.80;99.90;;;;;;5046532;28;19910;-79
2022/01/13 05:49:30;;;;;;;;;;;2.80;99.90;;;;;;5015747;28;19921;-79
2022/01/13 05:51:56;;;;;;;;;;;2.80;99.90;;;;;;5044953;28;19914;-79
2022/01/13 05:54:21;;;;;;;;;;;2.70;1.00;;;;;;5014495;28;19937;-79
2022/01/13 05:56:47;;;;;;;;;;;2.70;1.00;;;;;;5014888;28;19914;-79
2022/01/13 05:59:12;;;;;;;;;;;2.60;1.00;;;;;;5014523;28;20370;-79
2022/01/13 06:01:38;;;;;;;;;;;2.70;1.00;;;;;;5018736;28;19961;-79
2022/01/13 06:04:03;;;;;;;;;;;2.70;1.00;;;;;;5015895;28;19913;-80
2022/01/13 06:06:29;;;;;;;;;;;2.70;1.00;;;;;;5028551;28;19913;-79
2022/01/13 06:08:54;;;;;;;;;;;2.80;1.00;;;;;;5015078;28;20004;-80
2022/01/13 06:11:22;;;;;;;;;;;2.70;1.00;;;;;;5014506;28;19913;-79
2022/01/13 06:13:48;;;;;;;;;;;2.70;1.00;;;;;;5015072;28;19918;-79
2022/01/13 06:16:14;;;;;;;;;;;2.60;1.00;;;;;;5013053;28;20008;-79
2022/01/13 06:18:39;;;;;;;;;;;2.60;1.00;;;;;;5045348;28;20318;-79
2022/01/13 06:21:05;;;;;;;;;;;2.50;1.00;;;;;;5014156;28;20263;-79
2022/01/13 06:23:30;;;;;;;;;;;2.50;1.00;;;;;;5012473;28;20021;-79
2022/01/13 06:25:57;;;;;;;;;;;2.50;1.00;;;;;;5031155;28;19918;-80
2022/01/13 06:28:23;;;;;;;;;;;2.40;1.00;;;;;;5029097;28;20362;-79
2022/01/13 06:30:48;;;;;;;;;;;2.40;1.00;;;;;;5014597;28;19920;-79
2022/01/13 06:33:14;;;;;;;;;;;2.40;1.00;;;;;;5013721;28;20374;-79
2022/01/13 06:35:40;;;;;;;;;;;2.40;1.00;;;;;;5013297;28;20397;-78
2022/01/13 06:38:05;;;;;;;;;;;2.40;1.00;;;;;;5023573;28;19913;-78
2022/01/13 06:40:31;;;;;;;;;;;2.40;1.00;;;;;;5049442;28;20396;-79
2022/01/13 06:42:56;;;;;;;;;;;2.40;1.00;;;;;;5031959;28;19939;-79
2022/01/13 06:45:22;;;;;;;;;;;2.40;1.00;;;;;;5017406;28;20000;-79
2022/01/13 06:47:47;;;;;;;;;;;2.40;1.00;;;;;;5018875;28;19933;-78
2022/01/13 06:50:13;;;;;;;;;;;2.50;1.00;;;;;;5018401;28;19975;-77
2022/01/13 06:52:39;;;;;;;;;;;2.50;1.00;;;;;;5047191;28;19917;-78
2022/01/13 06:55:04;;;;;;;;;;;2.50;1.00;;;;;;5016705;28;20394;-78
2022/01/13 06:57:30;;;;;;;;;;;2.50;1.00;;;;;;5040538;28;19952;-79
2022/01/13 06:59:56;;;;;;;;;;;2.50;1.00;;;;;;5020944;28;20003;-78
2022/01/13 07:02:23;;;;;;;;;;;2.50;1.00;;;;;;5019895;28;19918;-78
2022/01/13 07:04:49;;;;;;;;;;;2.40;1.00;;;;;;5019266;28;19973;-78
2022/01/13 07:07:14;;;;;;;;;;;2.40;1.00;;;;;;5017755;28;20309;-80
2022/01/13 07:09:39;;;;;;;;;;;2.40;1.00;;;;;;5041517;28;19921;-78
2022/01/13 07:12:05;;;;;;;;;;;2.50;1.00;;;;;;5032667;28;19929;-80
2022/01/13 07:14:31;;;;;;;;;;;2.60;1.00;;;;;;5033058;28;19995;-81
2022/01/13 07:16:56;;;;;;;;;;;2.60;1.00;;;;;;5050830;28;19926;-80
2022/01/13 07:19:22;;;;;;;;;;;2.60;1.00;;;;;;5032037;28;20390;-80
2022/01/13 07:21:47;;;;;;;;;;;2.60;99.90;;;;;;5036554;28;19914;-80
2022/01/13 07:24:13;;;;;;;;;;;2.60;99.90;;;;;;5050063;28;20328;-79
2022/01/13 07:26:39;;;;;;;;;;;2.60;99.90;;;;;;5018251;28;19932;-79
2022/01/13 07:29:05;;;;;;;;;;;2.60;99.90;;;;;;5019812;28;19968;-79
2022/01/13 07:31:31;;;;;;;;;;;2.60;99.90;;;;;;5016726;28;20190;-79
2022/01/13 07:33:56;;;;;;;;;;;2.50;99.90;;;;;;5035122;28;19943;-79
2022/01/13 07:36:22;;;;;;;;;;;2.50;99.90;;;;;;5047190;28;19913;-79
2022/01/13 07:38:47;;;;;;;;;;;2.50;99.90;;;;;;5052096;28;19924;-79
2022/01/13 07:41:13;;;;;;;;;;;2.50;99.90;;;;;;5035314;28;19919;-80
2022/01/13 07:43:42;;;;;;;;;;;2.40;99.90;;;;;;5034714;28;19917;-79
2022/01/13 07:46:08;;;;;;;;;;;2.50;99.90;;;;;;5020202;28;19937;-83
2022/01/13 07:48:33;;;;;;;;;;;2.40;99.90;;;;;;5034022;28;19913;-80
2022/01/13 07:50:59;;;;;;;;;;;2.40;99.90;;;;;;5040334;28;19920;-80
2022/01/13 07:53:24;;;;;;;;;;;2.30;99.90;;;;;;5031038;28;19917;-80
2022/01/13 07:55:50;;;;;;;;;;;2.30;99.90;;;;;;5030964;28;19917;-79
2022/01/13 07:58:15;;;;;;;;;;;2.30;99.90;;;;;;5018800;28;19972;-80
2022/01/13 08:00:42;;;;;;;;;;;2.40;99.90;;;;;;5031833;28;19917;-79
2022/01/13 08:03:07;;;;;;;;;;;2.30;99.90;;;;;;5006139;28;19957;-79
2022/01/13 08:05:33;;;;;;;;;;;2.40;1.00;;;;;;5010426;28;19936;-80
2022/01/13 08:07:58;;;;;;;;;;;2.40;1.00;;;;;;5025830;28;20000;-80
2022/01/13 08:10:24;;;;;;;;;;;2.50;99.90;;;;;;5011900;28;19992;-79
2022/01/13 08:12:49;;;;;;;;;;;2.50;99.90;;;;;;5012602;28;19913;-79
2022/01/13 08:15:15;;;;;;;;;;;2.50;99.90;;;;;;5013927;28;20437;-80
2022/01/13 08:20:29;;;;;;;;;;;2.50;99.90;;;;;;5012803;28;19917;-78
2022/01/13 08:22:55;;;;;;;;;;;2.50;99.90;;;;;;5016029;28;19925;-79
2022/01/13 08:25:21;;;;;;;;;;;2.60;99.90;;;;;;5029037;28;20024;-80
2022/01/13 08:27:46;;;;;;;;;;;2.70;99.90;;;;;;5010390;28;20000;-79
2022/01/13 08:30:12;;;;;;;;;;;2.70;99.90;;;;;;5014335;28;19922;-79
2022/01/13 08:32:37;;;;;;;;;;;2.70;99.90;;;;;;5012801;28;19991;-80
2022/01/13 08:35:03;;;;;;;;;;;2.70;99.90;;;;;;5025656;28;19924;-79
2022/01/13 08:37:30;;;;;;;;;;;2.80;99.90;;;;;;5013427;28;20010;-80
2022/01/13 08:39:56;;;;;;;;;;;2.80;99.90;;;;;;5028983;28;19914;-78
2022/01/13 08:42:22;;;;;;;;;;;2.80;76.50;;;;;;5012658;28;19918;-79
2022/01/13 08:44:48;;;;;;;;;;;2.90;1.00;;;;;;5015959;28;19913;-80
2022/01/13 08:47:14;;;;;;;;;;;3.00;1.00;;;;;;5014501;28;20008;-80
2022/01/13 08:49:39;;;;;;;;;;;3.00;99.90;;;;;;5016113;28;19980;-79
2022/01/13 08:52:08;;;;;;;;;;;3.00;99.90;;;;;;5007669;28;19921;-80
2022/01/13 08:54:33;;;;;;;;;;;3.00;99.90;;;;;;5006327;28;19980;-79
2022/01/13 08:56:59;;;;;;;;;;;3.10;99.90;;;;;;5011413;28;20409;-79
2022/01/13 08:59:25;;;;;;;;;;;3.30;99.90;;;;;;5005563;28;19913;-81
2022/01/13 09:01:51;;;;;;;;;;;3.40;1.00;;;;;;5023601;28;20026;-78
2022/01/13 09:04:17;;;;;;;;;;;3.60;1.00;;;;;;5033386;28;20415;-80
2022/01/13 09:06:42;;;;;;;;;;;3.70;1.00;;;;;;5030789;28;19914;-79
2022/01/13 09:09:08;;;;;;;;;;;3.80;1.00;;;;;;5029096;28;19914;-80
2022/01/13 09:11:34;;;;;;;;;;;3.90;99.90;;;;;;5030090;28;19918;-79
2022/01/13 09:13:59;;;;;;;;;;;3.90;1.00;;;;;;5015432;28;19917;-79
2022/01/13 09:16:26;;;;;;;;;;;4.00;1.00;;;;;;5019404;28;19913;-80
2022/01/13 09:21:21;;;;;;;;;;;4.10;99.90;;;;;;5017587;28;19917;-80
2022/01/13 09:23:46;;;;;;;;;;;4.00;1.00;;;;;;5023710;28;19917;-79
2022/01/13 09:26:12;;;;;;;;;;;3.90;1.00;;;;;;5011022;28;20416;-79
2022/01/13 09:28:38;;;;;;;;;;;3.90;1.00;;;;;;5015212;28;19910;-79
2022/01/13 09:31:04;;;;;;;;;;;4.10;50.00;;;;;;5028963;28;19977;-80
2022/01/13 09:33:29;;;;;;;;;;;4.20;24.90;;;;;;5020761;28;19925;-79
2022/01/13 09:35:55;;;;;;;;;;;4.40;1.00;;;;;;5014218;28;20405;-80
2022/01/13 09:38:20;;;;;;;;;;;4.60;1.00;;;;;;5014274;28;19918;-79
2022/01/13 09:40:46;;;;;;;;;;;4.90;99.90;;;;;;5013484;28;19964;-80
2022/01/13 09:43:12;;;;;;;;;;;5.20;1.00;;;;;;5010358;28;19918;-80
2022/01/13 09:45:38;;;;;;;;;;;5.30;1.00;;;;;;5013135;28;19914;-80
2022/01/13 09:48:04;;;;;;;;;;;5.40;99.90;;;;;;5027724;28;19924;-79
2022/01/13 09:50:29;;;;;;;;;;;5.40;86.50;;;;;;5015410;28;19914;-79
2022/01/13 09:52:55;;;;;;;;;;;5.40;1.00;;;;;;5014009;28;19940;-79
2022/01/13 09:55:20;;;;;;;;;;;5.40;1.00;;;;;;5029045;28;19971;-79
2022/01/13 09:57:50;;;;;;;;;;;5.50;1.00;;;;;;5014561;28;19913;-80
2022/01/13 10:00:25;;;;;;;;;;;5.80;1.00;;;;;;5028515;28;19940;-79
2022/01/13 10:02:51;;;;;;;;;;;5.90;99.90;;;;;;5013790;28;19940;-79
2022/01/13 10:05:20;;;;;;;;;;;6.10;99.90;;;;;;5013351;28;19984;-80
2022/01/13 10:07:47;;;;;;;;;;;6.20;99.90;;;;;;5032504;28;20000;-79
2022/01/13 10:10:14;;;;;;;;;;;6.20;99.90;;;;;;5033628;28;19921;-79
2022/01/13 10:12:43;;;;;;;;;;;6.40;99.90;;;;;;5017731;28;19980;-79
2022/01/13 10:18:00;;;;;;;;;;;6.50;95.20;;;;;;5017302;28;19921;-79
2022/01/13 10:20:26;;;;;;;;;;;6.50;55.60;;;;;;5048449;28;19914;-79
2022/01/13 10:22:52;;;;;;;;;;;6.30;48.10;;;;;;5032758;28;19924;-79
2022/01/13 10:25:24;;;;;;;;;;;6.10;51.90;;;;;;5016007;28;19996;-79
2022/01/13 10:27:49;;;;;;;;;;;6.10;73.80;;;;;;5017636;28;19913;-79
2022/01/13 10:30:16;;;;;;;;;;;6.20;68.40;;;;;;5016782;28;19914;-80
2022/01/13 10:32:42;;;;;;;;;;;6.20;58.60;;;;;;5019002;28;19920;-79
2022/01/13 10:35:12;;;;;;;;;;;6.20;35.10;;;;;;5034861;28;19913;-79
2022/01/13 10:37:39;;;;;;;;;;;6.20;24.10;;;;;;5018129;28;19913;-79
2022/01/13 10:40:14;;;;;;;;;;;6.00;20.90;;;;;;5033831;28;20008;-79
2022/01/13 10:45:22;;;;;;;;;;;5.80;34.50;;;;;;5015773;28;19967;-79
2022/01/13 10:47:49;;;;;;;;;;;5.70;39.80;;;;;;5016578;28;19928;-79
2022/01/13 10:50:14;;;;;;;;;;;5.50;51.10;;;;;;5017180;28;19959;-80
2022/01/13 10:52:40;;;;;;;;;;;5.50;68.40;;;;;;5017377;28;19914;-79
2022/01/13 10:55:11;;;;;;;;;;;5.50;91.70;;;;;;5014538;28;19914;-79
2022/01/13 10:57:38;;;;;;;;;;;5.50;92.00;;;;;;5016725;28;19937;-79
2022/01/13 11:00:04;;;;;;;;;;;5.60;90.60;;;;;;5028077;28;19952;-79
2022/01/13 11:02:29;;;;;;;;;;;5.50;84.80;;;;;;5022880;28;19921;-80
2022/01/13 11:05:00;;;;;;;;;;;5.60;87.60;;;;;;5015095;28;20296;-80
2022/01/13 11:07:27;;;;;;;;;;;5.60;78.50;;;;;;5034100;28;19929;-79
2022/01/13 11:09:56;;;;;;;;;;;5.70;82.10;;;;;;5015854;28;20267;-80
2022/01/13 11:12:37;;;;;;;;;;;5.90;68.20;;;;;;5018996;28;20266;-80
2022/01/13 11:15:04;;;;;;;;;;;6.30;85.90;;;;;;5011611;28;19914;-80
2022/01/13 11:17:30;;;;;;;;;;;7.00;33.70;;;;;;5015806;28;20628;-80
2022/01/13 11:19:56;;;;;;;;;;;7.40;7.10;;;;;;5009163;28;20405;-81
2022/01/13 11:22:22;;;;;;;;;;;7.50;1.00;;;;;;5013859;28;19917;-79
2022/01/13 11:24:48;;;;;;;;;;;7.60;1.00;;;;;;5015989;28;19913;-79
2022/01/13 11:27:16;;;;;;;;;;;7.60;1.00;;;;;;5015553;28;20000;-78
2022/01/13 11:29:42;;;;;;;;;;;7.60;1.00;;;;;;5007246;28;19921;-80
2022/01/13 11:32:09;;;;;;;;;;;8.00;1.00;;;;;;5026577;28;19997;-80
2022/01/13 11:34:35;;;;;;;;;;;8.90;1.00;;;;;;5047000;28;20072;-79
2022/01/13 11:37:00;;;;;;;;;;;10.10;1.00;;;;;;5017694;28;19964;-80
2022/01/13 11:39:40;;;;;;;;;;;11.30;1.00;;;;;;5018951;28;20288;-80
2022/01/13 11:42:06;;;;;;;;;;;12.40;1.00;;;;;;5031259;28;19917;-80
2022/01/13 11:44:32;;;;;;;;;;;13.60;1.00;;;;;;5031287;28;19917;-80
2022/01/13 11:46:58;;;;;;;;;;;14.40;1.00;;;;;;5020869;28;19947;-81
2022/01/13 11:52:13;;;;;;;;;;;15.70;1.00;;;;;;5016461;28;19972;-81
2022/01/13 11:54:39;;;;;;;;;;;16.40;1.00;;;;;;5048676;28;19924;-80
2022/01/13 11:57:08;;;;;;;;;;;16.80;1.00;;;;;;5031926;28;19918;-80
2022/01/13 11:59:33;;;;;;;;;;;17.10;1.00;;;;;;5038733;28;19949;-80
2022/01/13 12:02:18;;;;;;;;;;;17.40;1.00;;;;;;5017384;28;20286;-81
2022/01/13 12:04:59;;;;;;;;;;;17.70;1.00;;;;;;5015172;28;19917;-81
2022/01/13 12:07:35;;;;;;;;;;;18.10;1.00;;;;;;5022810;28;19960;-80
2022/01/13 12:10:02;;;;;;;;;;;18.30;1.00;;;;;;5012863;28;19924;-81
2022/01/13 12:12:29;;;;;;;;;;;18.70;1.00;;;;;;5009965;28;19917;-80
2022/01/13 12:15:13;;;;;;;;;;;18.60;1.00;;;;;;5031953;28;19916;-81
2022/01/13 12:17:47;;;;;;;;;;;18.70;1.00;;;;;;5017013;28;19920;-82
2022/01/13 12:20:25;;;;;;;;;;;18.80;1.00;;;;;;5029055;28;19952;-80
2022/01/13 12:23:15;;;;;;;;;;;18.80;1.00;;;;;;5024691;28;19923;-81
2022/01/13 12:25:41;;;;;;;;;;;19.10;1.00;;;;;;5036651;28;20366;-81
2022/01/13 12:28:14;;;;;;;;;;;19.20;1.00;;;;;;5017432;28;19917;-81
2022/01/13 12:30:40;;;;;;;;;;;19.10;1.00;;;;;;5022443;28;19913;-81
2022/01/13 12:33:07;;;;;;;;;;;19.30;1.00;;;;;;5032645;28;19926;-81
2022/01/13 12:35:34;;;;;;;;;;;19.60;1.00;;;;;;5030720;28;20285;-81
2022/01/13 12:38:06;;;;;;;;;;;19.60;1.00;;;;;;5015547;28;19913;-82
2022/01/13 12:40:44;;;;;;;;;;;19.50;1.00;;;;;;5031946;28;19909;-81
2022/01/13 12:45:59;;;;;;;;;;;19.60;1.00;;;;;;5016952;28;20333;-81
2022/01/13 12:48:27;;;;;;;;;;;19.60;1.00;;;;;;5013805;28;19921;-80
2022/01/13 12:50:52;;;;;;;;;;;19.50;1.00;;;;;;5015552;28;19913;-81
2022/01/13 12:53:20;;;;;;;;;;;19.50;1.00;;;;;;5015317;28;19914;-81
2022/01/13 12:56:06;;;;;;;;;;;19.50;1.00;;;;;;5030615;28;19910;-81
2022/01/13 12:58:36;;;;;;;;;;;19.40;1.00;;;;;;5017768;28;19914;-81
2022/01/13 13:01:03;;;;;;;;;;;19.40;99.90;;;;;;5013942;28;19921;-80
2022/01/13 13:03:29;;;;;;;;;;;19.20;99.90;;;;;;5048375;28;20004;-80
2022/01/13 13:05:56;;;;;;;;;;;19.20;99.90;;;;;;5015642;28;19984;-80
2022/01/13 13:08:22;;;;;;;;;;;19.20;99.90;;;;;;5014901;28;20293;-81
2022/01/13 13:10:49;;;;;;;;;;;19.00;99.90;;;;;;5027292;28;20332;-81
2022/01/13 13:13:17;;;;;;;;;;;18.90;99.90;;;;;;5031444;28;19913;-81
2022/01/13 13:16:02;;;;;;;;;;;18.80;99.90;;;;;;5016182;28;19909;-81
2022/01/13 13:18:29;;;;;;;;;;;18.70;99.90;;;;;;5031249;28;19945;-80
2022/01/13 13:20:55;;;;;;;;;;;18.80;99.90;;;;;;5016263;28;19916;-80
2022/01/13 13:23:22;;;;;;;;;;;18.80;99.90;;;;;;5034538;28;20382;-81
2022/01/13 13:25:51;;;;;;;;;;;18.60;99.90;;;;;;5015910;28;19952;-80
2022/01/13 13:28:27;;;;;;;;;;;18.50;99.90;;;;;;5015947;28;19944;-81
2022/01/13 13:30:52;;;;;;;;;;;18.30;99.90;;;;;;5016435;28;19909;-80
2022/01/13 13:33:27;;;;;;;;;;;18.10;99.90;;;;;;5047346;28;20036;-80
2022/01/13 13:36:00;;;;;;;;;;;17.90;99.90;;;;;;5015696;28;19910;-80
2022/01/13 13:38:25;;;;;;;;;;;17.70;99.90;;;;;;5039741;28;19953;-80
2022/01/13 13:40:51;;;;;;;;;;;17.60;99.90;;;;;;5019361;28;19913;-80
2022/01/13 13:43:16;;;;;;;;;;;17.60;99.90;;;;;;5042415;28;19928;-81
2022/01/13 13:45:41;;;;;;;;;;;17.60;99.90;;;;;;5024552;28;20325;-79
2022/01/13 13:48:07;;;;;;;;;;;17.70;99.90;;;;;;5029989;28;19919;-80
2022/01/13 13:50:33;;;;;;;;;;;17.70;99.90;;;;;;5035900;28;19959;-82
2022/01/13 13:53:09;;;;;;;;;;;17.50;99.90;;;;;;5048832;28;19921;-81
2022/01/13 13:55:35;;;;;;;;;;;17.40;99.90;;;;;;5020646;28;19918;-81
2022/01/13 13:58:00;;;;;;;;;;;17.10;99.90;;;;;;5016567;28;19924;-81
2022/01/13 14:00:26;;;;;;;;;;;16.90;99.90;;;;;;5032209;28;20338;-81
2022/01/13 14:02:53;;;;;;;;;;;16.80;99.90;;;;;;5016629;28;20007;-82
2022/01/13 14:05:21;;;;;;;;;;;16.70;99.90;;;;;;5016129;28;20301;-82
2022/01/13 14:07:48;;;;;;;;;;;16.60;99.90;;;;;;5011344;28;19927;-82
2022/01/13 14:10:22;;;;;;;;;;;16.60;99.90;;;;;;5035837;28;19921;-81
2022/01/13 14:12:55;;;;;;;;;;;16.40;99.90;;;;;;5023622;28;19925;-81
2022/01/13 14:15:36;;;;;;;;;;;16.40;99.90;;;;;;5042765;28;19914;-81
2022/01/13 14:18:11;;;;;;;;;;;16.40;99.90;;;;;;5017572;28;20396;-81
2022/01/13 14:20:49;;;;;;;;;;;16.30;99.90;;;;;;5034266;28;19913;-81
2022/01/13 14:23:18;;;;;;;;;;;16.10;99.90;;;;;;5017989;28;19913;-82
2022/01/13 14:25:45;;;;;;;;;;;16.00;99.90;;;;;;5035261;28;19923;-81
2022/01/13 14:28:12;;;;;;;;;;;15.90;99.90;;;;;;5023581;28;19917;-81
2022/01/13 14:30:39;;;;;;;;;;;15.70;99.90;;;;;;5023863;28;19945;-81
2022/01/13 14:33:14;;;;;;;;;;;15.70;99.90;;;;;;5051855;28;19917;-82
2022/01/13 14:35:39;;;;;;;;;;;15.60;99.90;;;;;;5036220;28;19921;-81
2022/01/13 14:38:12;;;;;;;;;;;15.50;99.90;;;;;;5031126;28;19913;-81
2022/01/13 14:40:56;;;;;;;;;;;15.40;99.90;;;;;;5022091;28;20361;-81
2022/01/13 14:43:22;;;;;;;;;;;15.30;99.90;;;;;;5016667;28;19955;-81
2022/01/13 14:46:02;;;;;;;;;;;15.20;99.90;;;;;;5046585;28;20444;-81
2022/01/13 14:48:28;;;;;;;;;;;15.00;99.90;;;;;;5004529;28;20401;-81
2022/01/13 14:51:00;;;;;;;;;;;14.80;99.90;;;;;;5020008;28;19913;-80
2022/01/13 14:53:26;;;;;;;;;;;14.50;99.90;;;;;;5031306;28;19920;-81
2022/01/13 14:55:51;;;;;;;;;;;14.30;99.90;;;;;;5037888;28;19913;-80
2022/01/13 14:58:17;;;;;;;;;;;14.20;99.90;;;;;;5055144;28;19916;-82
2022/01/13 15:00:43;;;;;;;;;;;13.90;99.90;;;;;;5053689;28;20373;-81
2022/01/13 15:03:08;;;;;;;;;;;13.70;99.90;;;;;;5026659;28;19944;-81
2022/01/13 15:05:34;;;;;;;;;;;13.50;99.90;;;;;;5023105;28;20004;-81
2022/01/13 15:07:59;;;;;;;;;;;13.30;99.90;;;;;;5021608;28;19917;-80